Mia-s — V2EI7 — position and weather

sailwx.info

Track history (hours):
 
Tides and Currents Weather Stations Pressure Air Temp Water Temp Dewpoint Dewpoint Depression Visibility Wind Speed Wind Dir Waves Ship Positions

Mia-s

Last reported at 2014-Jul-04 20:27 UTC. Time now 2014-Jul-24 02:21 UTC.
Position N 29°43' W 121°13'.
Warning: this ship's position is 19 days out of date.

Length 190 m; draft 9.5 m.

Type: Cargo ship. MMSI: 305442000.

Date/timePositionNaut miles runAvg speedWind from/ knotsBaromVisibWave heightAir tempDewpointWater temp
2014-Jul-04 20:27N 29°43' W 121°13'5912.1
2014-Jul-04 15:34N 30°19' W 122°07'1211.9
2014-Jul-04 14:33N 30°27' W 122°18'1211.8
2014-Jul-04 13:33N 30°34' W 122°29'1211.6
2014-Jul-04 12:33N 30°41' W 122°39'1211.7
2014-Jul-04 11:31N 30°49' W 122°50'1111.7
2014-Jul-04 10:34N 30°56' W 123°01'1411.5
2014-Jul-04 09:18N 31°05' W 123°14'911.6
2014-Jul-04 08:33N 31°10' W 123°22'1311.6
2014-Jul-04 07:25N 31°18' W 123°34'1011.6
2014-Jul-04 06:33N 31°24' W 123°43'1211.9
2014-Jul-04 05:34N 31°32' W 123°54'1411.8
2014-Jul-04 04:24N 31°41' W 124°06'1011.8
2014-Jul-04 03:34N 31°47' W 124°15'  
Track history (hours):
 
Tides and Currents Weather Stations Pressure Air Temp Water Temp Dewpoint Dewpoint Depression Visibility Wind Speed Wind Dir Waves Ship Positions

Mia-s

Last reported at 2014-Jul-04 20:27 UTC. Time now 2014-Jul-24 02:21 UTC.
Position N 29°43' W 121°13'.
Warning: this ship's position is 19 days out of date.

Length 190 m; draft 9.5 m.

Type: Cargo ship. MMSI: 305442000.

Date/timePositionNaut miles runAvg speedWind from/ knotsBaromVisibWave heightAir tempDewpointWater temp
2014-Jul-04 20:27N 29°43' W 121°13'5912.1
2014-Jul-04 15:34N 30°19' W 122°07'1211.9
2014-Jul-04 14:33N 30°27' W 122°18'1211.8
2014-Jul-04 13:33N 30°34' W 122°29'1211.6
2014-Jul-04 12:33N 30°41' W 122°39'1211.7
2014-Jul-04 11:31N 30°49' W 122°50'1111.7
2014-Jul-04 10:34N 30°56' W 123°01'1411.5
2014-Jul-04 09:18N 31°05' W 123°14'911.6
2014-Jul-04 08:33N 31°10' W 123°22'1311.6
2014-Jul-04 07:25N 31°18' W 123°34'1011.6
2014-Jul-04 06:33N 31°24' W 123°43'1211.9
2014-Jul-04 05:34N 31°32' W 123°54'1411.8
2014-Jul-04 04:24N 31°41' W 124°06'1011.8
2014-Jul-04 03:34N 31°47' W 124°15'  

Dump ship's entire track history